createdAt,value
2019-03-23T00:00:12.256Z,2.90
2019-03-23T00:02:41.260Z,8.17
2019-03-23T00:05:10.415Z,6.63
2019-03-23T00:07:39.115Z,6.30
2019-03-23T00:10:08.509Z,6.03
2019-03-23T00:12:37.192Z,5.17
2019-03-23T00:15:06.830Z,4.23
2019-03-23T00:17:35.610Z,2.80
2019-03-23T00:20:04.678Z,8.40
2019-03-23T00:22:33.315Z,4.40
2019-03-23T00:25:02.331Z,6.83
2019-03-23T00:27:31.028Z,5.87
2019-03-23T00:29:59.958Z,6.87
2019-03-23T00:32:28.663Z,5.50
2019-03-23T00:34:57.276Z,4.70
2019-03-23T00:37:25.972Z,5.40
2019-03-23T00:39:54.616Z,4.60
2019-03-23T00:42:23.318Z,3.23
2019-03-23T00:44:51.965Z,3.60
2019-03-23T00:47:20.650Z,3.80
2019-03-23T00:49:49.274Z,3.07
2019-03-23T00:52:17.892Z,4.93
2019-03-23T00:54:46.552Z,4.97
2019-03-23T00:57:15.172Z,2.97
2019-03-23T00:59:43.804Z,6.47
2019-03-23T01:02:12.521Z,6.50
2019-03-23T01:04:41.152Z,3.53
2019-03-23T01:07:09.856Z,4.43
2019-03-23T01:09:38.486Z,6.40
2019-03-23T01:12:07.184Z,4.50
2019-03-23T01:14:35.809Z,3.80
2019-03-23T01:17:04.516Z,4.90
2019-03-23T01:19:33.177Z,2.50
2019-03-23T01:22:01.795Z,4.17
2019-03-23T01:24:30.424Z,3.80
2019-03-23T01:26:59.456Z,4.47
2019-03-23T01:29:28.160Z,5.83
2019-03-23T01:31:56.796Z,3.90
2019-03-23T01:34:25.430Z,8.00
2019-03-23T01:37:02.448Z,2.90
2019-03-23T01:39:24.957Z,2.73
2019-03-23T01:41:53.572Z,11.00
2019-03-23T01:44:22.250Z,3.50
2019-03-23T01:46:50.892Z,3.67
2019-03-23T01:49:19.600Z,2.23
2019-03-23T01:51:48.310Z,3.00
2019-03-23T01:54:16.958Z,6.07
2019-03-23T01:56:45.655Z,4.50
2019-03-23T01:59:14.270Z,4.33
2019-03-23T02:01:42.895Z,3.60
2019-03-23T02:04:11.519Z,6.10
2019-03-23T02:06:40.281Z,2.67
2019-03-23T02:09:09.076Z,3.87
2019-03-23T02:11:37.720Z,12.47
2019-03-23T02:14:06.419Z,7.10
2019-03-23T02:16:35.057Z,11.03
2019-03-23T02:19:03.761Z,5.97
2019-03-23T02:21:32.629Z,5.33
2019-03-23T02:24:01.333Z,6.23
2019-03-23T02:26:30.049Z,5.00
2019-03-23T02:28:58.747Z,6.87
2019-03-23T02:31:27.386Z,5.83
2019-03-23T02:33:56.007Z,10.10
2019-03-23T02:36:24.637Z,7.30
2019-03-23T02:38:53.273Z,7.60
2019-03-23T02:41:21.921Z,11.93
2019-03-23T02:43:50.558Z,5.80
2019-03-23T02:46:19.194Z,4.10
2019-03-23T02:48:47.810Z,5.73
2019-03-23T02:51:16.468Z,2.20
2019-03-23T02:54:04.402Z,5.30
2019-03-23T02:56:33.035Z,5.23
2019-03-23T02:59:01.896Z,4.23
2019-03-23T03:01:30.616Z,5.53
2019-03-23T03:03:59.528Z,3.23
2019-03-23T03:06:28.278Z,4.77
2019-03-23T03:08:56.909Z,4.60
2019-03-23T03:11:25.781Z,5.23
2019-03-23T03:13:54.404Z,3.73
2019-03-23T03:16:23.120Z,3.10
2019-03-23T03:18:51.735Z,4.00
2019-03-23T03:21:20.371Z,3.37
2019-03-23T03:23:49.071Z,3.63
2019-03-23T03:26:17.743Z,3.10
2019-03-23T03:28:46.450Z,2.00
2019-03-23T03:31:15.087Z,5.47
2019-03-23T03:33:43.727Z,2.20
2019-03-23T03:36:12.465Z,6.87
2019-03-23T03:38:41.092Z,4.37
2019-03-23T03:41:09.815Z,3.90
2019-03-23T03:43:38.459Z,5.43
2019-03-23T03:46:07.155Z,11.67
2019-03-23T03:48:35.797Z,10.43
2019-03-23T03:51:04.490Z,5.60
2019-03-23T03:53:33.204Z,7.53
2019-03-23T03:56:02.095Z,4.30
2019-03-23T03:58:30.732Z,3.70
2019-03-23T04:00:59.353Z,5.00
2019-03-23T04:03:28.009Z,7.00
2019-03-23T04:05:56.751Z,2.70
2019-03-23T04:08:25.369Z,3.13
2019-03-23T04:10:54.021Z,3.87
2019-03-23T04:13:22.723Z,6.60
2019-03-23T04:15:51.413Z,3.97
2019-03-23T04:18:20.050Z,4.00
2019-03-23T04:20:48.687Z,3.83
2019-03-23T04:23:17.314Z,2.93
2019-03-23T04:25:45.932Z,5.03
2019-03-23T04:28:14.607Z,4.30
2019-03-23T04:30:43.315Z,3.57
2019-03-23T04:33:11.958Z,5.90
2019-03-23T04:35:40.596Z,9.50
2019-03-23T04:38:09.236Z,3.60
2019-03-23T04:40:38.175Z,18.77
2019-03-23T04:43:06.829Z,3.30
2019-03-23T04:45:35.456Z,4.20
2019-03-23T04:48:04.176Z,6.93
2019-03-23T04:50:33.113Z,5.00
2019-03-23T04:53:01.999Z,9.67
2019-03-23T04:55:30.880Z,3.33
2019-03-23T04:57:59.735Z,3.67
2019-03-23T05:00:28.425Z,3.10
2019-03-23T05:02:57.056Z,2.90
2019-03-23T05:05:25.676Z,9.83
2019-03-23T05:07:54.303Z,2.40
2019-03-23T05:10:22.923Z,8.53
2019-03-23T05:12:51.800Z,2.50
2019-03-23T05:15:20.667Z,3.50
2019-03-23T05:17:49.380Z,3.30
2019-03-23T05:20:25.326Z,3.53
2019-03-23T05:22:54.048Z,5.87
2019-03-23T05:25:23.736Z,20.60
2019-03-23T05:27:52.364Z,14.50
2019-03-23T05:30:20.988Z,25.80
2019-03-23T05:32:49.726Z,30.43
2019-03-23T05:35:18.330Z,19.73
2019-03-23T05:37:46.982Z,28.73
2019-03-23T05:40:15.647Z,17.60
2019-03-23T05:42:44.272Z,21.10
2019-03-23T05:45:12.975Z,22.43
2019-03-23T05:47:41.619Z,24.13
2019-03-23T05:50:10.381Z,19.93
2019-03-23T05:52:39.329Z,20.63
2019-03-23T05:55:08.043Z,27.43
2019-03-23T05:57:36.694Z,17.00
2019-03-23T06:00:05.643Z,38.07
2019-03-23T06:02:34.270Z,17.53
2019-03-23T06:05:02.929Z,37.53
2019-03-23T06:07:31.613Z,26.23
2019-03-23T06:10:00.345Z,13.67
2019-03-23T06:12:28.974Z,29.80
2019-03-23T06:14:57.621Z,26.90
2019-03-23T06:17:26.253Z,20.80
2019-03-23T06:19:55.124Z,10.50
2019-03-23T06:22:23.756Z,24.27
2019-03-23T06:24:52.402Z,28.83
2019-03-23T06:27:21.280Z,23.57
2019-03-23T06:29:49.916Z,25.33
2019-03-23T06:32:20.645Z,18.20
2019-03-23T06:34:48.926Z,20.93
2019-03-23T06:37:17.639Z,9.43
2019-03-23T06:39:46.526Z,9.53
2019-03-23T06:42:15.557Z,8.40
2019-03-23T06:44:44.192Z,6.90
2019-03-23T06:47:12.811Z,8.03
2019-03-23T06:49:41.477Z,8.40
2019-03-23T06:52:10.102Z,12.63
2019-03-23T06:54:38.807Z,7.97
2019-03-23T06:57:07.445Z,3.40
2019-03-23T06:59:36.446Z,8.33
2019-03-23T07:02:05.089Z,4.80
2019-03-23T07:04:34.052Z,6.00
2019-03-23T07:07:02.697Z,4.03
2019-03-23T07:09:31.339Z,3.93
2019-03-23T07:12:00.203Z,2.03
2019-03-23T07:14:28.843Z,3.50
2019-03-23T07:16:57.555Z,2.60
2019-03-23T07:19:26.207Z,4.00
2019-03-23T07:21:54.843Z,4.20
2019-03-23T07:24:23.482Z,2.27
2019-03-23T07:26:52.458Z,3.90
2019-03-23T07:29:21.166Z,6.10
2019-03-23T07:31:49.819Z,6.13
2019-03-23T07:34:18.470Z,3.47
2019-03-23T07:36:47.103Z,12.93
2019-03-23T07:39:26.455Z,55.43
2019-03-23T07:41:46.379Z,59.33
2019-03-23T07:44:15.878Z,60.60
2019-03-23T07:46:44.524Z,69.77
2019-03-23T07:49:13.262Z,74.73
2019-03-23T07:51:41.899Z,69.77
2019-03-23T07:54:10.529Z,65.77
2019-03-23T07:56:39.192Z,61.50
2019-03-23T07:59:07.903Z,60.03
2019-03-23T08:01:36.538Z,65.53
2019-03-23T08:04:05.316Z,59.90
2019-03-23T08:06:33.974Z,67.07
2019-03-23T08:09:04.172Z,48.93
2019-03-23T08:11:32.826Z,60.33
2019-03-23T08:14:01.804Z,58.40
2019-03-23T08:16:30.694Z,60.67
2019-03-23T08:18:59.333Z,48.33
2019-03-23T08:21:28.265Z,51.93
2019-03-23T08:23:56.899Z,51.93
2019-03-23T08:26:25.779Z,48.13
2019-03-23T08:28:54.400Z,47.20
2019-03-23T08:31:23.328Z,41.60
2019-03-23T08:33:52.244Z,37.73
2019-03-23T08:36:21.073Z,40.77
2019-03-23T08:38:51.677Z,38.10
2019-03-23T08:41:20.213Z,31.90
2019-03-23T08:43:49.189Z,30.10
2019-03-23T08:46:17.824Z,34.90
2019-03-23T08:48:46.745Z,37.27
2019-03-23T08:51:15.482Z,27.80
2019-03-23T08:53:44.136Z,28.97
2019-03-23T08:56:12.792Z,36.37
2019-03-23T08:58:40.734Z,26.17
2019-03-23T09:01:09.387Z,21.67
2019-03-23T09:03:38.257Z,30.10
2019-03-23T09:06:07.003Z,28.97
2019-03-23T09:08:35.711Z,31.40
2019-03-23T09:11:04.761Z,23.87
2019-03-23T09:13:40.496Z,31.50
2019-03-23T09:16:04.004Z,39.17
2019-03-23T09:18:32.653Z,19.97
2019-03-23T09:21:01.488Z,27.63
2019-03-23T09:23:30.167Z,30.70
2019-03-23T09:25:58.885Z,22.00
2019-03-23T09:28:27.655Z,18.90
2019-03-23T09:30:56.333Z,25.50
2019-03-23T09:33:25.040Z,19.93
2019-03-23T09:35:53.743Z,18.60
2019-03-23T09:38:22.380Z,18.60
2019-03-23T09:40:51.015Z,21.97
2019-03-23T09:43:19.739Z,21.60
2019-03-23T09:45:48.394Z,29.10
2019-03-23T09:48:17.047Z,18.70
2019-03-23T09:50:45.687Z,18.50
2019-03-23T09:53:14.339Z,24.03
2019-03-23T09:55:43.052Z,15.20
2019-03-23T09:58:11.765Z,16.30
2019-03-23T10:00:40.396Z,19.43
2019-03-23T10:03:09.052Z,22.50
2019-03-23T10:05:37.672Z,24.17
2019-03-23T10:08:06.576Z,18.60
2019-03-23T10:10:35.283Z,23.27
2019-03-23T10:13:04.016Z,22.40
2019-03-23T10:15:32.993Z,20.20
2019-03-23T10:18:02.127Z,23.20
2019-03-23T10:20:30.759Z,19.70
2019-03-23T10:22:59.548Z,17.23
2019-03-23T10:25:28.212Z,24.27
2019-03-23T10:27:56.848Z,22.37
2019-03-23T10:30:25.565Z,16.70
2019-03-23T10:32:54.344Z,21.50
2019-03-23T10:35:22.982Z,15.57
2019-03-23T10:37:51.649Z,24.63
2019-03-23T10:40:20.359Z,28.03
2019-03-23T10:42:49.012Z,31.27
2019-03-23T10:45:17.718Z,23.80
2019-03-23T10:47:46.454Z,31.80
2019-03-23T10:50:15.438Z,24.33
2019-03-23T10:52:44.497Z,19.03
2019-03-23T10:55:13.357Z,19.90
2019-03-23T10:57:41.995Z,17.33
2019-03-23T11:00:11.373Z,19.23
2019-03-23T11:02:40.033Z,20.60
2019-03-23T11:05:08.849Z,25.50
2019-03-23T11:07:37.563Z,17.30
2019-03-23T11:10:06.440Z,20.93
2019-03-23T11:12:37.080Z,13.33
2019-03-23T11:15:05.913Z,17.53
2019-03-23T11:17:34.568Z,16.97
2019-03-23T11:20:03.403Z,20.30
2019-03-23T11:22:32.045Z,20.40
2019-03-23T11:25:00.674Z,19.57
2019-03-23T11:27:29.306Z,18.87
2019-03-23T11:29:58.018Z,17.10
2019-03-23T11:32:26.729Z,24.33
2019-03-23T11:34:55.649Z,16.57
2019-03-23T11:37:24.399Z,17.10
2019-03-23T11:39:53.240Z,18.87
2019-03-23T11:42:21.893Z,17.70
2019-03-23T11:44:50.660Z,14.43
2019-03-23T11:47:19.312Z,14.63
2019-03-23T11:49:48.234Z,8.97
2019-03-23T11:52:16.908Z,12.33
2019-03-23T11:54:45.572Z,19.63
2019-03-23T11:57:14.279Z,14.20
2019-03-23T11:59:42.953Z,12.30
2019-03-23T12:02:11.693Z,22.27
2019-03-23T12:04:40.325Z,8.90
2019-03-23T12:07:09.030Z,9.40
2019-03-23T12:09:37.753Z,14.00
2019-03-23T12:12:06.451Z,8.90
2019-03-23T12:14:35.101Z,7.47
2019-03-23T12:17:03.795Z,11.50
2019-03-23T12:19:35.864Z,10.30
2019-03-23T12:22:04.583Z,12.67
2019-03-23T12:24:33.235Z,10.60
2019-03-23T12:27:01.955Z,9.63
2019-03-23T12:29:30.620Z,9.43
2019-03-23T12:31:59.248Z,12.30
2019-03-23T12:34:46.825Z,8.30
2019-03-23T12:37:15.447Z,11.50
2019-03-23T12:39:44.105Z,16.50
2019-03-23T12:42:12.748Z,10.77
2019-03-23T12:44:41.469Z,13.53
2019-03-23T12:47:10.265Z,9.10
2019-03-23T12:49:38.888Z,8.77
2019-03-23T12:52:07.523Z,11.80
2019-03-23T12:54:36.164Z,14.50
2019-03-23T12:57:04.789Z,11.00
2019-03-23T12:59:33.507Z,9.57
2019-03-23T13:02:02.229Z,10.57
2019-03-23T13:04:30.876Z,9.33
2019-03-23T13:06:59.590Z,9.77
2019-03-23T13:09:28.539Z,9.57
2019-03-23T13:11:57.153Z,5.57
2019-03-23T13:14:25.801Z,6.63
2019-03-23T13:16:54.413Z,8.67
2019-03-23T13:19:23.444Z,8.03
2019-03-23T13:21:52.165Z,8.70
2019-03-23T13:24:22.635Z,8.10
2019-03-23T13:26:51.146Z,8.70
2019-03-23T13:29:19.853Z,8.13
2019-03-23T13:31:48.514Z,8.80
2019-03-23T13:34:17.278Z,16.80
2019-03-23T13:36:45.928Z,17.63
2019-03-23T13:39:14.906Z,18.10
2019-03-23T13:41:50.444Z,11.23
2019-03-23T13:44:19.228Z,7.93
2019-03-23T13:46:48.524Z,6.60
2019-03-23T13:49:26.088Z,9.10
2019-03-23T13:51:54.733Z,6.40
2019-03-23T13:54:23.384Z,12.00
2019-03-23T13:56:52.088Z,8.00
2019-03-23T13:59:20.819Z,10.03
2019-03-23T14:01:49.443Z,7.50
2019-03-23T14:04:18.161Z,10.10
2019-03-23T14:06:46.800Z,8.53
2019-03-23T14:09:15.438Z,8.30
2019-03-23T14:11:54.471Z,7.93
2019-03-23T14:14:15.088Z,9.53
2019-03-23T14:16:43.803Z,7.40
2019-03-23T14:19:12.453Z,6.63
2019-03-23T14:21:41.430Z,6.67
2019-03-23T14:24:10.136Z,8.90
2019-03-23T14:27:08.872Z,6.97
2019-03-23T14:29:37.504Z,5.40
2019-03-23T14:32:06.386Z,13.00
2019-03-23T14:34:35.032Z,6.93
2019-03-23T14:37:03.761Z,9.00
2019-03-23T14:39:32.472Z,6.43
2019-03-23T14:42:04.888Z,6.67
2019-03-23T14:44:31.585Z,8.00
2019-03-23T14:47:00.220Z,5.90
2019-03-23T14:49:28.911Z,8.90
2019-03-23T14:51:57.868Z,7.33
2019-03-23T14:54:26.521Z,6.57
2019-03-23T14:56:55.140Z,4.27
2019-03-23T14:59:23.803Z,5.40
2019-03-23T15:01:52.463Z,5.77
2019-03-23T15:04:21.109Z,5.83
2019-03-23T15:06:49.733Z,5.20
2019-03-23T15:09:18.363Z,5.97
2019-03-23T15:11:47.324Z,7.10
2019-03-23T15:14:16.027Z,5.10
2019-03-23T15:16:44.699Z,6.40
2019-03-23T15:19:15.474Z,4.73
2019-03-23T15:21:43.696Z,8.20
2019-03-23T15:24:12.579Z,8.33
2019-03-23T15:26:41.239Z,6.80
2019-03-23T15:29:09.888Z,4.33
2019-03-23T15:31:38.547Z,7.80
2019-03-23T15:34:07.256Z,6.53
2019-03-23T15:36:35.972Z,3.87
2019-03-23T15:39:06.197Z,5.43
2019-03-23T15:41:34.860Z,7.60
2019-03-23T15:44:03.790Z,6.57
2019-03-23T15:46:32.454Z,6.97
2019-03-23T15:49:01.160Z,4.63
2019-03-23T15:51:29.847Z,8.80
2019-03-23T15:53:58.488Z,5.07
2019-03-23T15:56:27.122Z,5.77
2019-03-23T15:58:55.771Z,4.80
2019-03-23T16:01:24.491Z,7.00
2019-03-23T16:03:53.130Z,4.57
2019-03-23T16:07:01.688Z,17.23
2019-03-23T16:09:30.323Z,6.73
2019-03-23T16:11:59.223Z,4.00
2019-03-23T16:14:27.940Z,6.50
2019-03-23T16:16:56.574Z,7.70
2019-03-23T16:19:25.221Z,7.97
2019-03-23T16:21:53.927Z,3.80
2019-03-23T16:24:22.623Z,11.97
2019-03-23T16:26:51.250Z,4.57
2019-03-23T16:29:19.883Z,4.33
2019-03-23T16:31:48.577Z,10.07
2019-03-23T16:34:17.217Z,6.37
2019-03-23T16:36:45.912Z,7.70
2019-03-23T16:39:14.555Z,7.43
2019-03-23T16:41:43.483Z,5.70
2019-03-23T16:44:12.378Z,7.70
2019-03-23T16:46:40.999Z,6.23
2019-03-23T16:49:09.636Z,8.13
2019-03-23T16:51:38.620Z,6.00
2019-03-23T16:54:07.572Z,6.93
2019-03-23T16:56:36.293Z,8.20
2019-03-23T16:59:05.002Z,5.87
2019-03-23T17:01:33.728Z,3.43
2019-03-23T17:04:02.603Z,3.87
2019-03-23T17:06:31.311Z,3.87
2019-03-23T17:09:00.239Z,3.93
2019-03-23T17:11:28.947Z,4.37
2019-03-23T17:13:57.568Z,6.13
2019-03-23T17:16:26.272Z,2.83
2019-03-23T17:18:55.537Z,5.83
2019-03-23T17:21:24.180Z,11.10
2019-03-23T17:23:52.821Z,6.23
2019-03-23T17:26:21.547Z,12.17
2019-03-23T17:28:50.188Z,8.43
2019-03-23T17:31:19.066Z,11.70
2019-03-23T17:33:47.948Z,20.37
2019-03-23T17:36:16.600Z,12.73
2019-03-23T17:38:45.337Z,10.67
2019-03-23T17:41:14.203Z,9.03
2019-03-23T17:43:42.841Z,12.40
2019-03-23T17:46:11.566Z,9.93
2019-03-23T17:48:40.207Z,9.53
2019-03-23T17:51:08.967Z,7.20
2019-03-23T17:53:37.721Z,6.80
2019-03-23T17:56:06.559Z,4.07
2019-03-23T17:58:35.292Z,4.50
2019-03-23T18:01:04.998Z,4.57
2019-03-23T18:07:20.500Z,5.10
2019-03-23T18:09:49.389Z,4.70
2019-03-23T18:12:18.136Z,7.33
2019-03-23T18:14:46.788Z,8.00
2019-03-23T18:17:15.417Z,7.07
2019-03-23T18:19:44.040Z,7.13
2019-03-23T18:22:12.761Z,7.20
2019-03-23T18:24:41.810Z,8.00
2019-03-23T18:27:10.495Z,7.73
2019-03-23T18:29:39.224Z,8.07
2019-03-23T18:32:07.901Z,5.67
2019-03-23T18:34:36.821Z,6.37
2019-03-23T18:37:05.506Z,9.77
2019-03-23T18:39:34.476Z,10.47
2019-03-23T18:42:03.200Z,11.33
2019-03-23T18:44:31.903Z,7.67
2019-03-23T18:47:00.526Z,8.90
2019-03-23T18:49:29.533Z,10.40
2019-03-23T18:51:58.158Z,7.37
2019-03-23T18:54:26.809Z,6.10
2019-03-23T18:56:55.463Z,10.33
2019-03-23T18:59:24.092Z,8.73
2019-03-23T19:01:52.716Z,7.60
2019-03-23T19:04:21.624Z,10.03
2019-03-23T19:06:50.347Z,10.33
2019-03-23T19:09:19.329Z,9.27
2019-03-23T19:11:48.029Z,11.87
2019-03-23T19:14:16.967Z,8.93
2019-03-23T19:26:17.684Z,10.73
2019-03-23T19:28:46.312Z,8.03
2019-03-23T19:31:15.291Z,9.20
2019-03-23T19:33:44.247Z,13.50
2019-03-23T19:36:13.123Z,32.47
2019-03-23T19:38:41.991Z,35.07
2019-03-23T19:41:10.607Z,22.83
2019-03-23T19:43:48.343Z,22.23
2019-03-23T19:46:09.764Z,37.07
2019-03-23T19:48:38.403Z,16.90
2019-03-23T19:51:07.031Z,9.67
2019-03-23T19:53:36.232Z,15.80
2019-03-23T19:56:05.199Z,18.23
2019-03-23T19:58:33.817Z,9.57
2019-03-23T20:01:02.763Z,13.30
2019-03-23T20:03:31.388Z,10.70
2019-03-23T20:06:00.021Z,14.23
2019-03-23T20:08:28.655Z,13.07
2019-03-23T20:10:57.269Z,8.90
2019-03-23T20:13:25.904Z,7.80
2019-03-23T20:15:54.869Z,6.63
2019-03-23T20:18:23.744Z,7.60
2019-03-23T20:20:52.372Z,18.67
2019-03-23T20:23:20.999Z,11.60
2019-03-23T20:25:49.881Z,9.10
2019-03-23T20:28:18.591Z,11.30
2019-03-23T20:30:47.227Z,11.10
2019-03-23T20:39:24.880Z,5.77
2019-03-23T20:41:53.538Z,9.07
2019-03-23T20:44:22.215Z,7.70
2019-03-23T20:46:50.916Z,8.70
2019-03-23T20:49:19.714Z,5.90
2019-03-23T20:51:48.446Z,7.83
2019-03-23T20:54:17.139Z,6.63
2019-03-23T20:56:46.017Z,8.70
2019-03-23T20:59:14.892Z,11.20
2019-03-23T21:01:53.096Z,8.47
2019-03-23T21:04:21.719Z,6.00
2019-03-23T21:06:50.351Z,10.00
2019-03-23T21:09:18.986Z,8.57
2019-03-23T21:11:47.916Z,12.27
2019-03-23T21:14:20.351Z,6.13
2019-03-23T21:16:47.148Z,8.20
2019-03-23T21:19:40.140Z,9.17
2019-03-23T21:22:08.775Z,7.33
2019-03-23T21:24:37.402Z,5.60
2019-03-23T21:27:06.126Z,5.80
2019-03-23T21:29:34.761Z,8.10
2019-03-23T21:32:03.661Z,5.33
2019-03-23T21:34:32.292Z,6.33
2019-03-23T21:37:00.931Z,6.27
2019-03-23T21:39:29.579Z,7.40
2019-03-23T21:41:58.231Z,7.77
2019-03-23T21:44:30.830Z,7.37
2019-03-23T21:46:57.316Z,8.77
2019-03-23T21:49:25.951Z,13.33
2019-03-23T21:51:54.830Z,6.53
2019-03-23T21:54:23.480Z,7.13
2019-03-23T21:56:52.346Z,5.73
2019-03-23T21:59:20.974Z,5.90
2019-03-23T22:01:49.625Z,7.57
2019-03-23T22:04:18.500Z,8.00
2019-03-23T22:06:47.146Z,9.00
2019-03-23T22:09:16.017Z,9.63
2019-03-23T22:11:44.654Z,5.27
2019-03-23T22:14:13.279Z,8.20
2019-03-23T22:16:41.991Z,5.70
2019-03-23T22:19:10.616Z,11.20
2019-03-23T22:21:39.503Z,6.13
2019-03-23T22:24:08.138Z,6.53
2019-03-23T22:26:36.809Z,6.93
2019-03-23T22:29:05.504Z,8.47
2019-03-23T22:31:34.219Z,6.37
2019-03-23T22:34:02.848Z,6.13
2019-03-23T22:36:31.741Z,9.83
2019-03-23T22:39:00.399Z,11.23
2019-03-23T22:41:29.092Z,7.07
2019-03-23T22:43:57.717Z,5.40
2019-03-23T22:46:26.362Z,9.60
2019-03-23T22:48:55.079Z,5.80
2019-03-23T22:57:45.093Z,6.67
2019-03-23T23:00:15.692Z,6.80
2019-03-23T23:02:44.320Z,7.00
2019-03-23T23:05:13.022Z,5.77
2019-03-23T23:07:41.663Z,6.23
2019-03-23T23:10:10.459Z,3.90
2019-03-23T23:12:39.118Z,7.60
2019-03-23T23:15:07.902Z,6.10
2019-03-23T23:17:36.791Z,8.03
2019-03-23T23:20:05.510Z,8.37
2019-03-23T23:22:34.489Z,7.50
2019-03-23T23:25:03.335Z,5.40
2019-03-23T23:27:31.992Z,7.67
2019-03-23T23:30:00.599Z,7.77
2019-03-23T23:32:29.267Z,7.23
2019-03-23T23:34:58.224Z,10.80
2019-03-23T23:37:26.955Z,9.03
2019-03-23T23:39:56.110Z,10.07
2019-03-23T23:42:25.289Z,8.20
2019-03-23T23:44:54.425Z,6.47
2019-03-23T23:47:23.060Z,5.67
2019-03-23T23:49:51.698Z,6.60
2019-03-23T23:52:20.324Z,6.60
2019-03-23T23:54:48.944Z,6.30
2019-03-23T23:57:17.636Z,6.50
2019-03-23T23:59:46.269Z,12.23
